sensor_id;sensor_type;location;lat;lon;timestamp;temperature;humidity
10702;DHT22;5402;50.004;8.246;2022-09-09T00:00:19;15.70;99.90
10702;DHT22;5402;50.004;8.246;2022-09-09T00:02:50;15.70;99.90
10702;DHT22;5402;50.004;8.246;2022-09-09T00:05:28;15.70;99.90
10702;DHT22;5402;50.004;8.246;2022-09-09T00:08:00;15.70;99.90
10702;DHT22;5402;50.004;8.246;2022-09-09T00:10:30;15.70;99.90
10702;DHT22;5402;50.004;8.246;2022-09-09T00:13:05;15.70;99.90
10702;DHT22;5402;50.004;8.246;2022-09-09T00:15:40;15.60;99.90
10702;DHT22;5402;50.004;8.246;2022-09-09T00:18:16;15.60;99.90
10702;DHT22;5402;50.004;8.246;2022-09-09T00:20:49;15.50;99.90
10702;DHT22;5402;50.004;8.246;2022-09-09T00:23:24;15.50;99.90
10702;DHT22;5402;50.004;8.246;2022-09-09T00:26:00;15.50;99.90
10702;DHT22;5402;50.004;8.246;2022-09-09T00:28:29;15.50;99.90
10702;DHT22;5402;50.004;8.246;2022-09-09T00:31:01;15.50;99.90
10702;DHT22;5402;50.004;8.246;2022-09-09T00:33:31;15.40;99.90
10702;DHT22;5402;50.004;8.246;2022-09-09T00:35:58;15.40;99.90
10702;DHT22;5402;50.004;8.246;2022-09-09T00:38:31;15.30;99.90
10702;DHT22;5402;50.004;8.246;2022-09-09T00:41:03;15.20;99.90
10702;DHT22;5402;50.004;8.246;2022-09-09T00:43:35;15.20;99.90
10702;DHT22;5402;50.004;8.246;2022-09-09T00:46:41;15.20;99.90
10702;DHT22;5402;50.004;8.246;2022-09-09T00:49:15;15.20;99.90
10702;DHT22;5402;50.004;8.246;2022-09-09T00:51:54;15.10;99.90
10702;DHT22;5402;50.004;8.246;2022-09-09T00:54:30;15.10;99.90
10702;DHT22;5402;50.004;8.246;2022-09-09T00:57:10;15.10;99.90
10702;DHT22;5402;50.004;8.246;2022-09-09T00:59:46;15.10;99.90
10702;DHT22;5402;50.004;8.246;2022-09-09T01:02:23;15.00;99.90
10702;DHT22;5402;50.004;8.246;2022-09-09T01:04:52;14.90;99.90
10702;DHT22;5402;50.004;8.246;2022-09-09T01:07:20;14.70;99.90
10702;DHT22;5402;50.004;8.246;2022-09-09T01:09:56;14.90;99.90
10702;DHT22;5402;50.004;8.246;2022-09-09T01:12:32;14.90;99.90
10702;DHT22;5402;50.004;8.246;2022-09-09T01:15:10;14.90;99.90
10702;DHT22;5402;50.004;8.246;2022-09-09T01:17:48;15.00;99.90
10702;DHT22;5402;50.004;8.246;2022-09-09T01:20:20;15.00;99.90
10702;DHT22;5402;50.004;8.246;2022-09-09T01:23:03;15.00;99.90
10702;DHT22;5402;50.004;8.246;2022-09-09T01:26:09;15.00;99.90
10702;DHT22;5402;50.004;8.246;2022-09-09T01:28:39;15.00;99.90
10702;DHT22;5402;50.004;8.246;2022-09-09T01:31:09;15.00;99.90
10702;DHT22;5402;50.004;8.246;2022-09-09T01:33:37;14.90;99.90
10702;DHT22;5402;50.004;8.246;2022-09-09T01:36:08;14.90;99.90
10702;DHT22;5402;50.004;8.246;2022-09-09T01:38:38;14.90;99.90
10702;DHT22;5402;50.004;8.246;2022-09-09T01:41:06;14.90;99.90
10702;DHT22;5402;50.004;8.246;2022-09-09T01:43:33;14.90;99.90
10702;DHT22;5402;50.004;8.246;2022-09-09T01:46:01;14.80;99.90
10702;DHT22;5402;50.004;8.246;2022-09-09T01:48:28;14.80;99.90
10702;DHT22;5402;50.004;8.246;2022-09-09T01:50:57;14.80;99.90
10702;DHT22;5402;50.004;8.246;2022-09-09T01:53:23;14.80;99.90
10702;DHT22;5402;50.004;8.246;2022-09-09T01:55:59;14.70;99.90
10702;DHT22;5402;50.004;8.246;2022-09-09T01:58:41;14.70;99.90
10702;DHT22;5402;50.004;8.246;2022-09-09T02:01:19;14.60;99.90
10702;DHT22;5402;50.004;8.246;2022-09-09T02:03:52;14.60;99.90
10702;DHT22;5402;50.004;8.246;2022-09-09T02:06:26;14.60;99.90
10702;DHT22;5402;50.004;8.246;2022-09-09T02:08:56;14.60;99.90
10702;DHT22;5402;50.004;8.246;2022-09-09T02:11:26;14.60;99.90
10702;DHT22;5402;50.004;8.246;2022-09-09T02:14:00;14.60;99.90
10702;DHT22;5402;50.004;8.246;2022-09-09T02:16:32;14.70;99.90
10702;DHT22;5402;50.004;8.246;2022-09-09T02:19:02;14.60;99.90
10702;DHT22;5402;50.004;8.246;2022-09-09T02:21:33;14.70;99.90
10702;DHT22;5402;50.004;8.246;2022-09-09T02:24:04;14.70;99.90
10702;DHT22;5402;50.004;8.246;2022-09-09T02:26:34;14.60;99.90
10702;DHT22;5402;50.004;8.246;2022-09-09T02:29:06;14.70;99.90
10702;DHT22;5402;50.004;8.246;2022-09-09T02:31:34;14.80;99.90
10702;DHT22;5402;50.004;8.246;2022-09-09T02:34:05;14.80;99.90
10702;DHT22;5402;50.004;8.246;2022-09-09T02:36:37;14.80;99.90
10702;DHT22;5402;50.004;8.246;2022-09-09T02:39:05;14.90;99.90
10702;DHT22;5402;50.004;8.246;2022-09-09T02:41:35;14.70;99.90
10702;DHT22;5402;50.004;8.246;2022-09-09T02:44:10;14.70;99.90
10702;DHT22;5402;50.004;8.246;2022-09-09T02:46:50;14.70;99.90
10702;DHT22;5402;50.004;8.246;2022-09-09T02:49:26;14.80;99.90
10702;DHT22;5402;50.004;8.246;2022-09-09T02:52:01;14.70;99.90
10702;DHT22;5402;50.004;8.246;2022-09-09T02:54:30;14.70;99.90
10702;DHT22;5402;50.004;8.246;2022-09-09T02:57:03;14.70;99.90
10702;DHT22;5402;50.004;8.246;2022-09-09T02:59:32;14.60;99.90
10702;DHT22;5402;50.004;8.246;2022-09-09T03:01:59;14.60;99.90
10702;DHT22;5402;50.004;8.246;2022-09-09T03:04:26;14.50;99.90
10702;DHT22;5402;50.004;8.246;2022-09-09T03:06:54;14.50;99.90
10702;DHT22;5402;50.004;8.246;2022-09-09T03:09:20;14.50;99.90
10702;DHT22;5402;50.004;8.246;2022-09-09T03:11:47;14.50;99.90
10702;DHT22;5402;50.004;8.246;2022-09-09T03:14:14;14.50;99.90
10702;DHT22;5402;50.004;8.246;2022-09-09T03:16:43;14.40;99.90
10702;DHT22;5402;50.004;8.246;2022-09-09T03:19:10;14.40;99.90
10702;DHT22;5402;50.004;8.246;2022-09-09T03:21:36;14.40;99.90
10702;DHT22;5402;50.004;8.246;2022-09-09T03:24:04;14.30;99.90
10702;DHT22;5402;50.004;8.246;2022-09-09T03:26:32;14.40;99.90
10702;DHT22;5402;50.004;8.246;2022-09-09T03:28:59;14.40;99.90
10702;DHT22;5402;50.004;8.246;2022-09-09T03:31:26;14.40;99.90
10702;DHT22;5402;50.004;8.246;2022-09-09T03:33:57;14.50;99.90
10702;DHT22;5402;50.004;8.246;2022-09-09T03:36:24;14.50;99.90
10702;DHT22;5402;50.004;8.246;2022-09-09T03:38:51;14.40;99.90
10702;DHT22;5402;50.004;8.246;2022-09-09T03:41:19;14.40;99.90
10702;DHT22;5402;50.004;8.246;2022-09-09T03:43:46;14.40;99.90
10702;DHT22;5402;50.004;8.246;2022-09-09T03:46:15;14.40;99.90
10702;DHT22;5402;50.004;8.246;2022-09-09T03:48:43;14.40;99.90
10702;DHT22;5402;50.004;8.246;2022-09-09T03:51:11;14.40;99.90
10702;DHT22;5402;50.004;8.246;2022-09-09T03:53:37;14.40;99.90
10702;DHT22;5402;50.004;8.246;2022-09-09T03:56:06;14.40;99.90
10702;DHT22;5402;50.004;8.246;2022-09-09T03:58:33;14.40;99.90
10702;DHT22;5402;50.004;8.246;2022-09-09T04:01:02;14.30;99.90
10702;DHT22;5402;50.004;8.246;2022-09-09T04:03:32;14.30;99.90
10702;DHT22;5402;50.004;8.246;2022-09-09T04:06:03;14.50;99.90
10702;DHT22;5402;50.004;8.246;2022-09-09T04:08:31;14.40;99.90
10702;DHT22;5402;50.004;8.246;2022-09-09T04:10:59;14.40;99.90
10702;DHT22;5402;50.004;8.246;2022-09-09T04:13:28;14.50;99.90
10702;DHT22;5402;50.004;8.246;2022-09-09T04:15:57;14.50;99.90
10702;DHT22;5402;50.004;8.246;2022-09-09T04:18:24;14.60;99.90
10702;DHT22;5402;50.004;8.246;2022-09-09T04:20:52;14.50;99.90
10702;DHT22;5402;50.004;8.246;2022-09-09T04:23:20;14.60;99.90
10702;DHT22;5402;50.004;8.246;2022-09-09T04:25:49;14.60;99.90
10702;DHT22;5402;50.004;8.246;2022-09-09T04:28:17;14.60;99.90
10702;DHT22;5402;50.004;8.246;2022-09-09T04:30:45;14.50;99.90
10702;DHT22;5402;50.004;8.246;2022-09-09T04:33:13;14.60;99.90
10702;DHT22;5402;50.004;8.246;2022-09-09T04:35:43;14.50;99.90
10702;DHT22;5402;50.004;8.246;2022-09-09T04:38:10;14.50;99.90
10702;DHT22;5402;50.004;8.246;2022-09-09T04:40:37;14.40;99.90
10702;DHT22;5402;50.004;8.246;2022-09-09T04:43:10;14.40;99.90
10702;DHT22;5402;50.004;8.246;2022-09-09T04:45:36;14.40;99.90
10702;DHT22;5402;50.004;8.246;2022-09-09T04:48:05;14.50;99.90
10702;DHT22;5402;50.004;8.246;2022-09-09T04:50:32;14.40;99.90
10702;DHT22;5402;50.004;8.246;2022-09-09T04:53:00;14.40;99.90
10702;DHT22;5402;50.004;8.246;2022-09-09T04:55:27;14.40;99.90
10702;DHT22;5402;50.004;8.246;2022-09-09T04:57:54;14.30;99.90
10702;DHT22;5402;50.004;8.246;2022-09-09T05:00:22;14.30;99.90
10702;DHT22;5402;50.004;8.246;2022-09-09T05:02:49;14.30;99.90
10702;DHT22;5402;50.004;8.246;2022-09-09T05:05:16;14.40;99.90
10702;DHT22;5402;50.004;8.246;2022-09-09T05:07:44;14.40;99.90
10702;DHT22;5402;50.004;8.246;2022-09-09T05:10:11;14.40;99.90
10702;DHT22;5402;50.004;8.246;2022-09-09T05:12:38;14.40;99.90
10702;DHT22;5402;50.004;8.246;2022-09-09T05:15:06;14.40;99.90
10702;DHT22;5402;50.004;8.246;2022-09-09T05:17:34;14.40;99.90
10702;DHT22;5402;50.004;8.246;2022-09-09T05:20:01;14.40;99.90
10702;DHT22;5402;50.004;8.246;2022-09-09T05:22:29;14.40;99.90
10702;DHT22;5402;50.004;8.246;2022-09-09T05:24:56;14.40;99.90
10702;DHT22;5402;50.004;8.246;2022-09-09T05:27:23;14.50;99.90
10702;DHT22;5402;50.004;8.246;2022-09-09T05:29:51;14.50;99.90
10702;DHT22;5402;50.004;8.246;2022-09-09T05:32:17;14.40;99.90
10702;DHT22;5402;50.004;8.246;2022-09-09T05:34:45;14.50;99.90
10702;DHT22;5402;50.004;8.246;2022-09-09T05:37:12;14.50;99.90
10702;DHT22;5402;50.004;8.246;2022-09-09T05:39:39;14.50;99.90
10702;DHT22;5402;50.004;8.246;2022-09-09T05:42:06;14.60;99.90
10702;DHT22;5402;50.004;8.246;2022-09-09T05:44:33;14.60;99.90
10702;DHT22;5402;50.004;8.246;2022-09-09T05:47:00;14.70;99.90
10702;DHT22;5402;50.004;8.246;2022-09-09T05:49:26;14.70;99.90
10702;DHT22;5402;50.004;8.246;2022-09-09T05:51:54;14.80;99.90
10702;DHT22;5402;50.004;8.246;2022-09-09T05:54:21;14.80;99.90
10702;DHT22;5402;50.004;8.246;2022-09-09T05:56:48;14.90;99.90
10702;DHT22;5402;50.004;8.246;2022-09-09T05:59:18;15.00;99.90
10702;DHT22;5402;50.004;8.246;2022-09-09T06:01:45;15.00;99.90
10702;DHT22;5402;50.004;8.246;2022-09-09T06:04:12;15.10;99.90
10702;DHT22;5402;50.004;8.246;2022-09-09T06:06:39;15.10;99.90
10702;DHT22;5402;50.004;8.246;2022-09-09T06:09:09;15.10;99.90
10702;DHT22;5402;50.004;8.246;2022-09-09T06:11:38;15.20;99.90
10702;DHT22;5402;50.004;8.246;2022-09-09T06:14:05;15.30;99.90
10702;DHT22;5402;50.004;8.246;2022-09-09T06:16:33;15.50;99.90
10702;DHT22;5402;50.004;8.246;2022-09-09T06:19:00;15.50;99.90
10702;DHT22;5402;50.004;8.246;2022-09-09T06:21:29;15.60;99.90
10702;DHT22;5402;50.004;8.246;2022-09-09T06:23:57;15.70;99.90
10702;DHT22;5402;50.004;8.246;2022-09-09T06:26:27;15.80;99.90
10702;DHT22;5402;50.004;8.246;2022-09-09T06:28:54;15.90;99.90
10702;DHT22;5402;50.004;8.246;2022-09-09T06:31:24;16.00;99.90
10702;DHT22;5402;50.004;8.246;2022-09-09T06:33:52;16.10;99.90
10702;DHT22;5402;50.004;8.246;2022-09-09T06:36:21;16.20;99.90
10702;DHT22;5402;50.004;8.246;2022-09-09T06:38:49;16.20;99.90
10702;DHT22;5402;50.004;8.246;2022-09-09T06:41:18;16.30;99.90
10702;DHT22;5402;50.004;8.246;2022-09-09T06:43:47;16.30;99.90
10702;DHT22;5402;50.004;8.246;2022-09-09T06:46:15;16.40;99.90
10702;DHT22;5402;50.004;8.246;2022-09-09T06:48:43;16.40;99.90
10702;DHT22;5402;50.004;8.246;2022-09-09T06:51:12;16.40;99.90
10702;DHT22;5402;50.004;8.246;2022-09-09T06:53:40;16.50;99.90
10702;DHT22;5402;50.004;8.246;2022-09-09T06:56:18;16.50;99.90
10702;DHT22;5402;50.004;8.246;2022-09-09T06:58:47;16.50;99.90
10702;DHT22;5402;50.004;8.246;2022-09-09T07:01:16;16.40;99.90
10702;DHT22;5402;50.004;8.246;2022-09-09T07:03:46;16.50;99.90
10702;DHT22;5402;50.004;8.246;2022-09-09T07:06:14;16.50;99.90
10702;DHT22;5402;50.004;8.246;2022-09-09T07:08:42;16.40;99.90
10702;DHT22;5402;50.004;8.246;2022-09-09T07:11:10;16.40;99.90
10702;DHT22;5402;50.004;8.246;2022-09-09T07:13:37;16.40;99.90
10702;DHT22;5402;50.004;8.246;2022-09-09T07:16:07;16.50;99.90
10702;DHT22;5402;50.004;8.246;2022-09-09T07:18:34;16.50;99.90
10702;DHT22;5402;50.004;8.246;2022-09-09T07:21:02;16.70;99.90
10702;DHT22;5402;50.004;8.246;2022-09-09T07:23:29;16.90;99.90
10702;DHT22;5402;50.004;8.246;2022-09-09T07:25:57;16.90;99.90
10702;DHT22;5402;50.004;8.246;2022-09-09T07:28:25;17.00;99.90
10702;DHT22;5402;50.004;8.246;2022-09-09T07:30:55;17.10;99.90
10702;DHT22;5402;50.004;8.246;2022-09-09T07:33:23;17.10;99.90
10702;DHT22;5402;50.004;8.246;2022-09-09T07:35:50;17.30;99.90
10702;DHT22;5402;50.004;8.246;2022-09-09T07:38:17;17.40;99.90
10702;DHT22;5402;50.004;8.246;2022-09-09T07:40:44;17.50;99.90
10702;DHT22;5402;50.004;8.246;2022-09-09T07:43:11;17.70;99.90
10702;DHT22;5402;50.004;8.246;2022-09-09T07:45:38;17.80;99.90
10702;DHT22;5402;50.004;8.246;2022-09-09T07:48:06;18.00;99.90
10702;DHT22;5402;50.004;8.246;2022-09-09T07:50:34;18.00;99.90
10702;DHT22;5402;50.004;8.246;2022-09-09T07:53:01;18.20;99.90
10702;DHT22;5402;50.004;8.246;2022-09-09T07:55:27;18.30;99.90
10702;DHT22;5402;50.004;8.246;2022-09-09T07:57:55;18.20;99.90
10702;DHT22;5402;50.004;8.246;2022-09-09T08:00:22;18.20;99.90
10702;DHT22;5402;50.004;8.246;2022-09-09T08:02:49;18.50;99.90
10702;DHT22;5402;50.004;8.246;2022-09-09T08:05:16;18.50;99.90
10702;DHT22;5402;50.004;8.246;2022-09-09T08:07:44;18.40;99.90
10702;DHT22;5402;50.004;8.246;2022-09-09T08:10:11;18.40;99.90
10702;DHT22;5402;50.004;8.246;2022-09-09T08:12:40;18.40;99.90
10702;DHT22;5402;50.004;8.246;2022-09-09T08:15:07;18.40;99.90
10702;DHT22;5402;50.004;8.246;2022-09-09T08:17:34;18.30;99.90
10702;DHT22;5402;50.004;8.246;2022-09-09T08:20:03;18.20;99.90
10702;DHT22;5402;50.004;8.246;2022-09-09T08:22:32;18.20;99.90
10702;DHT22;5402;50.004;8.246;2022-09-09T08:25:01;18.30;99.90
10702;DHT22;5402;50.004;8.246;2022-09-09T08:27:27;18.20;99.90
10702;DHT22;5402;50.004;8.246;2022-09-09T08:29:54;18.30;99.90
10702;DHT22;5402;50.004;8.246;2022-09-09T08:32:22;18.30;99.90
10702;DHT22;5402;50.004;8.246;2022-09-09T08:34:48;18.30;99.90
10702;DHT22;5402;50.004;8.246;2022-09-09T08:37:16;18.40;99.90
10702;DHT22;5402;50.004;8.246;2022-09-09T08:39:44;18.40;99.90
10702;DHT22;5402;50.004;8.246;2022-09-09T08:42:30;18.30;99.90
10702;DHT22;5402;50.004;8.246;2022-09-09T08:45:31;18.30;99.90
10702;DHT22;5402;50.004;8.246;2022-09-09T08:48:12;18.40;99.90
10702;DHT22;5402;50.004;8.246;2022-09-09T08:50:43;18.50;99.90
10702;DHT22;5402;50.004;8.246;2022-09-09T08:53:16;18.60;99.90
10702;DHT22;5402;50.004;8.246;2022-09-09T08:55:47;18.60;99.90
10702;DHT22;5402;50.004;8.246;2022-09-09T08:58:17;18.70;99.90
10702;DHT22;5402;50.004;8.246;2022-09-09T09:01:03;18.80;99.90
10702;DHT22;5402;50.004;8.246;2022-09-09T09:03:42;18.80;99.90
10702;DHT22;5402;50.004;8.246;2022-09-09T09:06:19;18.80;99.90
10702;DHT22;5402;50.004;8.246;2022-09-09T09:08:53;18.80;99.90
10702;DHT22;5402;50.004;8.246;2022-09-09T09:11:23;18.70;99.90
10702;DHT22;5402;50.004;8.246;2022-09-09T09:13:54;18.80;99.90
10702;DHT22;5402;50.004;8.246;2022-09-09T09:16:29;18.70;99.90
10702;DHT22;5402;50.004;8.246;2022-09-09T09:18:58;18.80;99.90
10702;DHT22;5402;50.004;8.246;2022-09-09T09:21:31;19.00;99.90
10702;DHT22;5402;50.004;8.246;2022-09-09T09:24:01;19.10;99.90
10702;DHT22;5402;50.004;8.246;2022-09-09T09:26:32;19.20;99.90
10702;DHT22;5402;50.004;8.246;2022-09-09T09:29:09;19.00;99.90
10702;DHT22;5402;50.004;8.246;2022-09-09T09:31:38;19.00;99.90
10702;DHT22;5402;50.004;8.246;2022-09-09T09:34:07;19.00;99.90
10702;DHT22;5402;50.004;8.246;2022-09-09T09:36:40;19.30;99.90
10702;DHT22;5402;50.004;8.246;2022-09-09T09:39:08;19.50;99.90
10702;DHT22;5402;50.004;8.246;2022-09-09T09:41:36;19.60;99.90
10702;DHT22;5402;50.004;8.246;2022-09-09T09:44:22;19.70;99.90
10702;DHT22;5402;50.004;8.246;2022-09-09T09:46:49;19.70;99.90
10702;DHT22;5402;50.004;8.246;2022-09-09T09:49:16;19.60;99.90
10702;DHT22;5402;50.004;8.246;2022-09-09T09:51:43;19.50;99.90
10702;DHT22;5402;50.004;8.246;2022-09-09T09:54:18;19.40;99.90
10702;DHT22;5402;50.004;8.246;2022-09-09T09:56:50;19.60;99.90
10702;DHT22;5402;50.004;8.246;2022-09-09T09:59:23;20.00;99.90
10702;DHT22;5402;50.004;8.246;2022-09-09T10:01:50;20.10;99.90
10702;DHT22;5402;50.004;8.246;2022-09-09T10:04:19;20.20;99.90
10702;DHT22;5402;50.004;8.246;2022-09-09T10:06:49;20.10;99.90
10702;DHT22;5402;50.004;8.246;2022-09-09T10:09:22;20.20;99.90
10702;DHT22;5402;50.004;8.246;2022-09-09T10:11:56;20.20;99.90
10702;DHT22;5402;50.004;8.246;2022-09-09T10:14:31;20.30;99.90
10702;DHT22;5402;50.004;8.246;2022-09-09T10:17:09;20.20;99.90
10702;DHT22;5402;50.004;8.246;2022-09-09T10:19:42;20.10;99.90
10702;DHT22;5402;50.004;8.246;2022-09-09T10:22:25;19.90;99.90
10702;DHT22;5402;50.004;8.246;2022-09-09T10:27:50;20.00;99.90
10702;DHT22;5402;50.004;8.246;2022-09-09T10:30:22;20.60;99.90
10702;DHT22;5402;50.004;8.246;2022-09-09T10:32:56;20.80;99.90
10702;DHT22;5402;50.004;8.246;2022-09-09T10:35:30;21.20;99.90
10702;DHT22;5402;50.004;8.246;2022-09-09T10:38:14;21.50;99.90
10702;DHT22;5402;50.004;8.246;2022-09-09T10:43:46;22.10;99.90
10702;DHT22;5402;50.004;8.246;2022-09-09T10:46:23;22.00;99.90
10702;DHT22;5402;50.004;8.246;2022-09-09T10:49:04;21.80;99.90
10702;DHT22;5402;50.004;8.246;2022-09-09T10:51:40;21.70;99.90
10702;DHT22;5402;50.004;8.246;2022-09-09T10:54:24;21.90;99.90
10702;DHT22;5402;50.004;8.246;2022-09-09T10:56:56;22.00;99.90
10702;DHT22;5402;50.004;8.246;2022-09-09T10:59:26;21.80;99.90
10702;DHT22;5402;50.004;8.246;2022-09-09T11:02:00;21.80;99.90
10702;DHT22;5402;50.004;8.246;2022-09-09T11:04:34;21.70;99.90
10702;DHT22;5402;50.004;8.246;2022-09-09T11:07:06;21.80;99.90
10702;DHT22;5402;50.004;8.246;2022-09-09T11:09:38;21.90;99.90
10702;DHT22;5402;50.004;8.246;2022-09-09T11:12:12;22.00;99.90
10702;DHT22;5402;50.004;8.246;2022-09-09T11:14:43;22.30;99.90
10702;DHT22;5402;50.004;8.246;2022-09-09T11:17:16;22.50;99.90
10702;DHT22;5402;50.004;8.246;2022-09-09T11:19:45;22.80;99.90
10702;DHT22;5402;50.004;8.246;2022-09-09T11:22:19;22.80;99.90
10702;DHT22;5402;50.004;8.246;2022-09-09T11:24:51;23.00;99.90
10702;DHT22;5402;50.004;8.246;2022-09-09T11:27:23;22.90;99.90
10702;DHT22;5402;50.004;8.246;2022-09-09T11:30:17;22.70;99.90
10702;DHT22;5402;50.004;8.246;2022-09-09T11:33:04;23.00;99.90
10702;DHT22;5402;50.004;8.246;2022-09-09T11:35:42;23.00;99.90
10702;DHT22;5402;50.004;8.246;2022-09-09T11:38:18;22.80;99.90
10702;DHT22;5402;50.004;8.246;2022-09-09T11:40:46;22.60;99.90
10702;DHT22;5402;50.004;8.246;2022-09-09T11:43:15;22.10;99.90
10702;DHT22;5402;50.004;8.246;2022-09-09T11:45:51;21.50;99.90
10702;DHT22;5402;50.004;8.246;2022-09-09T11:48:31;21.30;99.90
10702;DHT22;5402;50.004;8.246;2022-09-09T11:51:00;21.20;99.90
10702;DHT22;5402;50.004;8.246;2022-09-09T11:53:28;21.10;99.90
10702;DHT22;5402;50.004;8.246;2022-09-09T11:56:24;21.00;99.90
10702;DHT22;5402;50.004;8.246;2022-09-09T11:58:55;20.80;99.90
10702;DHT22;5402;50.004;8.246;2022-09-09T12:01:41;20.60;99.90
10702;DHT22;5402;50.004;8.246;2022-09-09T12:04:28;20.60;99.90
10702;DHT22;5402;50.004;8.246;2022-09-09T12:06:59;20.60;99.90
10702;DHT22;5402;50.004;8.246;2022-09-09T12:09:32;20.60;99.90
10702;DHT22;5402;50.004;8.246;2022-09-09T12:12:21;20.40;99.90
10702;DHT22;5402;50.004;8.246;2022-09-09T12:14:59;20.40;99.90
10702;DHT22;5402;50.004;8.246;2022-09-09T12:17:28;20.10;99.90
10702;DHT22;5402;50.004;8.246;2022-09-09T12:20:13;20.20;99.90
10702;DHT22;5402;50.004;8.246;2022-09-09T12:25:36;19.90;99.90
10702;DHT22;5402;50.004;8.246;2022-09-09T12:28:10;19.80;99.90
10702;DHT22;5402;50.004;8.246;2022-09-09T12:30:49;19.80;99.90
10702;DHT22;5402;50.004;8.246;2022-09-09T12:33:19;19.70;99.90
10702;DHT22;5402;50.004;8.246;2022-09-09T12:35:53;19.50;99.90
10702;DHT22;5402;50.004;8.246;2022-09-09T12:38:26;19.60;99.90
10702;DHT22;5402;50.004;8.246;2022-09-09T12:40:55;19.50;99.90
10702;DHT22;5402;50.004;8.246;2022-09-09T12:43:24;19.60;99.90
10702;DHT22;5402;50.004;8.246;2022-09-09T12:45:54;19.60;99.90
10702;DHT22;5402;50.004;8.246;2022-09-09T12:48:28;19.30;99.90
10702;DHT22;5402;50.004;8.246;2022-09-09T12:50:58;19.30;99.90
10702;DHT22;5402;50.004;8.246;2022-09-09T12:53:29;19.30;99.90
10702;DHT22;5402;50.004;8.246;2022-09-09T12:55:59;19.40;99.90
10702;DHT22;5402;50.004;8.246;2022-09-09T12:58:28;19.70;99.90
10702;DHT22;5402;50.004;8.246;2022-09-09T13:00:58;20.00;99.90
10702;DHT22;5402;50.004;8.246;2022-09-09T13:03:26;20.00;99.90
10702;DHT22;5402;50.004;8.246;2022-09-09T13:06:09;20.10;99.90
10702;DHT22;5402;50.004;8.246;2022-09-09T13:08:36;20.20;99.90
10702;DHT22;5402;50.004;8.246;2022-09-09T13:11:06;20.40;99.90
10702;DHT22;5402;50.004;8.246;2022-09-09T13:13:37;20.50;99.90
10702;DHT22;5402;50.004;8.246;2022-09-09T13:16:15;20.50;99.90
10702;DHT22;5402;50.004;8.246;2022-09-09T13:18:44;20.60;99.90
10702;DHT22;5402;50.004;8.246;2022-09-09T13:21:13;20.70;99.90
10702;DHT22;5402;50.004;8.246;2022-09-09T13:23:41;20.80;99.90
10702;DHT22;5402;50.004;8.246;2022-09-09T13:26:22;20.80;99.90
10702;DHT22;5402;50.004;8.246;2022-09-09T13:28:49;20.60;99.90
10702;DHT22;5402;50.004;8.246;2022-09-09T13:31:21;20.90;99.90
10702;DHT22;5402;50.004;8.246;2022-09-09T13:33:48;20.70;99.90
10702;DHT22;5402;50.004;8.246;2022-09-09T13:36:27;20.50;99.90
10702;DHT22;5402;50.004;8.246;2022-09-09T13:38:55;20.50;99.90
10702;DHT22;5402;50.004;8.246;2022-09-09T13:41:24;20.10;99.90
10702;DHT22;5402;50.004;8.246;2022-09-09T13:43:52;20.10;99.90
10702;DHT22;5402;50.004;8.246;2022-09-09T13:46:31;20.00;99.90
10702;DHT22;5402;50.004;8.246;2022-09-09T13:49:01;19.80;99.90
10702;DHT22;5402;50.004;8.246;2022-09-09T13:51:34;19.60;99.90
10702;DHT22;5402;50.004;8.246;2022-09-09T13:54:03;19.60;99.90
10702;DHT22;5402;50.004;8.246;2022-09-09T13:56:31;19.50;99.90
10702;DHT22;5402;50.004;8.246;2022-09-09T13:58:58;19.40;99.90
10702;DHT22;5402;50.004;8.246;2022-09-09T14:01:25;19.30;99.90
10702;DHT22;5402;50.004;8.246;2022-09-09T14:03:54;19.20;99.90
10702;DHT22;5402;50.004;8.246;2022-09-09T14:06:23;19.20;99.90
10702;DHT22;5402;50.004;8.246;2022-09-09T14:08:51;19.20;99.90
10702;DHT22;5402;50.004;8.246;2022-09-09T14:11:20;19.00;99.90
10702;DHT22;5402;50.004;8.246;2022-09-09T14:13:48;18.90;99.90
10702;DHT22;5402;50.004;8.246;2022-09-09T14:16:15;18.80;99.90
10702;DHT22;5402;50.004;8.246;2022-09-09T14:18:42;18.60;99.90
10702;DHT22;5402;50.004;8.246;2022-09-09T14:21:10;18.50;99.90
10702;DHT22;5402;50.004;8.246;2022-09-09T14:23:37;18.60;99.90
10702;DHT22;5402;50.004;8.246;2022-09-09T14:26:05;18.70;99.90
10702;DHT22;5402;50.004;8.246;2022-09-09T14:28:33;18.70;99.90
10702;DHT22;5402;50.004;8.246;2022-09-09T14:31:00;18.80;99.90
10702;DHT22;5402;50.004;8.246;2022-09-09T14:33:27;18.80;99.90
10702;DHT22;5402;50.004;8.246;2022-09-09T14:35:56;18.80;99.90
10702;DHT22;5402;50.004;8.246;2022-09-09T14:38:23;18.90;99.90
10702;DHT22;5402;50.004;8.246;2022-09-09T14:40:50;18.90;99.90
10702;DHT22;5402;50.004;8.246;2022-09-09T14:43:18;18.90;99.90
10702;DHT22;5402;50.004;8.246;2022-09-09T14:45:45;18.90;99.90
10702;DHT22;5402;50.004;8.246;2022-09-09T14:48:15;18.90;99.90
10702;DHT22;5402;50.004;8.246;2022-09-09T14:50:41;18.90;99.90
10702;DHT22;5402;50.004;8.246;2022-09-09T14:53:09;18.70;99.90
10702;DHT22;5402;50.004;8.246;2022-09-09T14:55:36;18.60;99.90
10702;DHT22;5402;50.004;8.246;2022-09-09T14:58:04;18.60;99.90
10702;DHT22;5402;50.004;8.246;2022-09-09T15:00:34;18.60;99.90
10702;DHT22;5402;50.004;8.246;2022-09-09T15:03:01;18.70;99.90
10702;DHT22;5402;50.004;8.246;2022-09-09T15:05:28;18.80;99.90
10702;DHT22;5402;50.004;8.246;2022-09-09T15:07:57;18.90;99.90
10702;DHT22;5402;50.004;8.246;2022-09-09T15:10:24;19.00;99.90
10702;DHT22;5402;50.004;8.246;2022-09-09T15:12:51;19.10;99.90
10702;DHT22;5402;50.004;8.246;2022-09-09T15:15:18;19.10;99.90
10702;DHT22;5402;50.004;8.246;2022-09-09T15:17:47;19.10;99.90
10702;DHT22;5402;50.004;8.246;2022-09-09T15:20:15;19.20;99.90
10702;DHT22;5402;50.004;8.246;2022-09-09T15:22:42;19.20;99.90
10702;DHT22;5402;50.004;8.246;2022-09-09T15:25:09;19.20;99.90
10702;DHT22;5402;50.004;8.246;2022-09-09T15:27:37;19.30;99.90
10702;DHT22;5402;50.004;8.246;2022-09-09T15:30:05;19.30;99.90
10702;DHT22;5402;50.004;8.246;2022-09-09T15:32:33;19.30;99.90
10702;DHT22;5402;50.004;8.246;2022-09-09T15:35:02;19.30;99.90
10702;DHT22;5402;50.004;8.246;2022-09-09T15:37:29;19.30;99.90
10702;DHT22;5402;50.004;8.246;2022-09-09T15:39:56;19.40;99.90
10702;DHT22;5402;50.004;8.246;2022-09-09T15:42:24;19.30;99.90
10702;DHT22;5402;50.004;8.246;2022-09-09T15:44:51;19.20;99.90
10702;DHT22;5402;50.004;8.246;2022-09-09T15:47:19;19.20;99.90
10702;DHT22;5402;50.004;8.246;2022-09-09T15:49:45;19.10;99.90
10702;DHT22;5402;50.004;8.246;2022-09-09T15:52:13;19.00;99.90
10702;DHT22;5402;50.004;8.246;2022-09-09T15:54:40;19.10;99.90
10702;DHT22;5402;50.004;8.246;2022-09-09T15:57:11;19.10;99.90
10702;DHT22;5402;50.004;8.246;2022-09-09T15:59:39;19.00;99.90
10702;DHT22;5402;50.004;8.246;2022-09-09T16:02:06;18.90;99.90
10702;DHT22;5402;50.004;8.246;2022-09-09T16:04:33;18.90;99.90
10702;DHT22;5402;50.004;8.246;2022-09-09T16:07:02;18.80;99.90
10702;DHT22;5402;50.004;8.246;2022-09-09T16:09:31;18.80;99.90
10702;DHT22;5402;50.004;8.246;2022-09-09T16:12:00;18.80;99.90
10702;DHT22;5402;50.004;8.246;2022-09-09T16:14:28;18.80;99.90